createdAt,value
2018-12-22T06:58:12.300Z,12.8
2018-12-22T07:08:11.520Z,13.3
2018-12-22T07:18:10.725Z,13.1
2018-12-22T07:28:09.930Z,14.3
2018-12-22T07:38:09.136Z,14.2
2018-12-22T07:48:08.353Z,14.4
2018-12-22T07:58:07.555Z,14.4
2018-12-22T08:08:06.839Z,14.4
2018-12-22T08:18:06.127Z,14.4
2018-12-22T08:28:05.406Z,14.4
2018-12-22T08:38:04.694Z,13.8
2018-12-22T08:48:03.987Z,14.4
2018-12-22T08:58:03.231Z,14.2
2018-12-22T09:08:02.446Z,14.7
2018-12-22T09:18:01.664Z,14.2
2018-12-22T09:28:00.866Z,13.9
2018-12-22T09:38:00.076Z,14.7
2018-12-22T09:47:59.283Z,14.4
2018-12-22T09:57:58.485Z,14.4
2018-12-22T10:07:57.702Z,14.4
2018-12-22T10:17:56.907Z,14
2018-12-22T10:27:56.110Z,14.7
2018-12-22T10:37:55.327Z,14
2018-12-22T10:47:54.545Z,14.7
2018-12-22T10:57:53.767Z,14.4
2018-12-22T11:07:52.987Z,14.2
2018-12-22T11:17:52.197Z,14.3
2018-12-22T11:27:51.418Z,14
2018-12-22T11:37:50.637Z,14.4
2018-12-22T11:47:49.855Z,14.3
2018-12-22T11:57:49.070Z,14.1
2018-12-22T12:07:48.287Z,13.9
2018-12-22T12:17:47.601Z,13.6
2018-12-22T12:27:46.724Z,13.8
2018-12-22T12:37:45.930Z,13.4
2018-12-22T12:47:45.138Z,13.3
2018-12-22T12:57:44.358Z,12.7
2018-12-22T13:07:43.567Z,13.4
2018-12-22T13:17:42.775Z,13.2
2018-12-22T13:27:41.981Z,13.3
2018-12-22T13:37:41.191Z,12.9
2018-12-22T13:47:40.552Z,13.1
2018-12-22T13:57:39.615Z,12.5
2018-12-22T14:07:38.815Z,13
2018-12-22T14:17:38.021Z,12.5
2018-12-22T14:27:37.335Z,12.6
2018-12-22T14:37:36.449Z,12.9
2018-12-22T14:47:35.653Z,12.5
2018-12-22T14:57:34.865Z,13.1
2018-12-22T15:07:34.079Z,12.8
2018-12-22T15:17:33.286Z,12.8
2018-12-22T15:27:32.495Z,13.2
2018-12-22T15:37:31.721Z,12.9
2018-12-22T15:47:30.928Z,12.9
2018-12-22T15:57:30.135Z,13.1
2018-12-22T16:07:29.475Z,12.6
2018-12-22T16:17:28.576Z,13
2018-12-22T16:27:27.793Z,12.5
2018-12-22T16:37:27.003Z,12.5
2018-12-22T16:47:26.216Z,12.6
2018-12-22T16:57:25.431Z,13
2018-12-22T17:07:24.652Z,13.1
2018-12-22T17:17:23.868Z,13.1
2018-12-22T17:27:23.147Z,13
2018-12-22T17:37:22.296Z,13.2
2018-12-22T17:47:21.523Z,12.7
2018-12-22T17:57:20.742Z,12.5
2018-12-22T18:07:19.974Z,12.6
2018-12-22T18:17:19.198Z,13
2018-12-22T18:27:18.431Z,13
2018-12-22T18:37:17.642Z,13
2018-12-22T18:47:16.865Z,13.2
2018-12-22T18:57:16.080Z,12.6
2018-12-22T19:07:15.311Z,12.6
2018-12-22T19:17:14.513Z,12.5
2018-12-22T19:27:13.741Z,12.9
2018-12-22T19:37:12.959Z,12.7
2018-12-22T19:47:12.169Z,12.8
2018-12-22T19:57:11.392Z,12.4
2018-12-22T20:07:10.603Z,12.9
2018-12-22T20:17:09.815Z,13.1
2018-12-22T20:27:09.045Z,12.4
2018-12-22T20:37:08.244Z,13
2018-12-22T20:47:07.460Z,12.8
2018-12-22T20:57:06.682Z,13.1
2018-12-22T21:07:05.902Z,12.8
2018-12-22T21:17:05.112Z,12.6
2018-12-22T21:27:04.332Z,12.8
2018-12-22T21:37:03.547Z,13.1
2018-12-22T21:47:02.763Z,13
2018-12-22T21:57:01.962Z,13
2018-12-22T22:07:01.183Z,12.8
2018-12-22T22:17:00.396Z,13.2
2018-12-22T22:26:59.602Z,12.8
2018-12-22T22:36:58.816Z,12.7
2018-12-22T22:46:58.033Z,13.2
2018-12-22T22:56:59.298Z,12.7
2018-12-22T23:06:56.452Z,13.1
2018-12-22T23:16:55.665Z,13
2018-12-22T23:26:54.870Z,13
2018-12-22T23:36:54.087Z,13
2018-12-22T23:46:53.299Z,12.9
2018-12-22T23:56:52.513Z,13.1
